Time;durP1;ratioP1;P1;durP2;ratioP2;P2;SDS_P1;SDS_P2;PMS_P1;PMS_P2;Temp;Humidity;BMP_temperature;BMP_pressure;BME280_temperature;BME280_humidity;BME280_pressure;Samples;Min_cycle;Max_cycle;Signal;HPM_P1;HPM_P2
2021/03/10 00:01:22;;;;;;;23.95;15.82;;;;;;;8.72;54.65;101534.19;5095090;28;20047;-69
2021/03/10 00:08:24;;;;;;;25.60;15.13;;;;;;;8.86;54.08;101527.00;5012448;28;20053;-66
2021/03/10 00:10:51;;;;;;;29.13;15.75;;;;;;;8.87;54.07;101523.16;4995844;28;20543;-69
2021/03/10 00:13:18;;;;;;;23.02;14.95;;;;;;;8.93;53.65;101519.25;5012104;28;20061;-66
2021/03/10 00:15:51;;;;;;;27.05;15.48;;;;;;;8.67;54.23;101524.06;4994544;28;20054;-70
2021/03/10 00:22:45;;;;;;;28.08;14.13;;;;;;;8.71;54.26;101530.66;5075138;28;20048;-70
2021/03/10 00:25:15;;;;;;;24.80;15.15;;;;;;;8.73;54.02;101516.63;5093999;28;20441;-73
2021/03/10 00:27:42;;;;;;;23.25;13.73;;;;;;;8.67;54.18;101524.06;5076571;28;20048;-68
2021/03/10 00:30:12;;;;;;;22.17;13.82;;;;;;;8.72;54.20;101515.81;5094367;28;20067;-67
2021/03/10 00:32:39;;;;;;;21.73;13.20;;;;;;;8.76;54.03;101524.31;5093746;28;20048;-71
2021/03/10 00:35:32;;;;;;;23.40;14.40;;;;;;;8.87;53.44;101518.47;5080405;28;20051;-67
2021/03/10 00:38:00;;;;;;;22.90;13.32;;;;;;;8.57;54.07;101526.03;5091314;28;20427;-68
2021/03/10 00:40:31;;;;;;;18.83;12.15;;;;;;;8.49;54.28;101524.69;5093633;28;20043;-68
2021/03/10 00:43:08;;;;;;;21.52;12.15;;;;;;;8.71;54.12;101510.59;5086891;28;20044;-70
2021/03/10 00:45:35;;;;;;;22.65;12.52;;;;;;;8.71;53.99;101508.69;5083256;28;20056;-68
2021/03/10 00:48:02;;;;;;;20.20;12.13;;;;;;;8.65;53.84;101504.28;5093937;28;20064;-71
2021/03/10 00:50:51;;;;;;;25.90;12.88;;;;;;;8.41;54.56;101510.72;5093871;28;20044;-75
2021/03/10 00:53:24;;;;;;;23.42;12.90;;;;;;;8.57;54.63;101518.63;5093654;28;20051;-69
2021/03/10 00:55:50;;;;;;;24.13;13.25;;;;;;;8.54;54.68;101519.16;5067301;28;20067;-72
2021/03/10 00:58:20;;;;;;;20.10;11.70;;;;;;;8.36;55.10;101525.28;5060441;28;20044;-72
2021/03/10 01:00:53;;;;;;;20.08;12.38;;;;;;;8.42;55.02;101528.84;5092126;28;20055;-70
2021/03/10 01:03:41;;;;;;;18.13;10.88;;;;;;;8.59;54.66;101526.56;5078276;28;20048;-71
2021/03/10 01:06:08;;;;;;;18.60;11.23;;;;;;;8.47;54.74;101532.38;5093212;28;20049;-68
2021/03/10 01:08:35;;;;;;;18.05;10.73;;;;;;;8.69;54.24;101541.09;5093326;28;20052;-70
2021/03/10 01:11:05;;;;;;;23.00;11.25;;;;;;;8.72;53.76;101542.44;5092671;28;20055;-68
2021/03/10 01:13:39;;;;;;;18.92;11.15;;;;;;;8.30;54.92;101542.84;5026704;28;20048;-68
2021/03/10 01:16:12;;;;;;;15.45;9.80;;;;;;;8.38;54.94;101539.56;5059885;28;20052;-70
2021/03/10 01:18:45;;;;;;;23.23;11.65;;;;;;;8.48;54.80;101547.75;5074821;28;20056;-71
2021/03/10 01:21:12;;;;;;;21.60;10.95;;;;;;;8.44;54.97;101549.41;5075521;28;20048;-72
2021/03/10 01:23:41;;;;;;;16.95;10.57;;;;;;;8.34;55.30;101545.84;5072970;28;20040;-66
2021/03/10 01:26:11;;;;;;;18.85;10.07;;;;;;;8.41;54.59;101549.13;5075855;28;20052;-67
2021/03/10 01:28:39;;;;;;;16.88;9.98;;;;;;;8.30;55.10;101545.59;5074778;28;20048;-65
2021/03/10 01:31:10;;;;;;;16.48;10.25;;;;;;;8.40;54.92;101553.81;5092953;28;20394;-70
2021/03/10 01:38:30;;;;;;;20.58;12.30;;;;;;;7.59;57.37;101541.25;5092751;28;20052;-67
2021/03/10 01:40:57;;;;;;;20.83;12.23;;;;;;;7.52;58.15;101537.94;5091906;28;20044;-68
2021/03/10 01:43:24;;;;;;;18.38;11.13;;;;;;;7.54;58.41;101533.03;5092464;28;20059;-67
2021/03/10 01:45:51;;;;;;;20.58;11.48;;;;;;;7.65;57.60;101520.97;5092189;28;20386;-70
2021/03/10 01:48:21;;;;;;;17.50;11.07;;;;;;;7.68;57.55;101534.13;5074560;28;20059;-67
2021/03/10 01:55:26;;;;;;;24.20;11.02;;;;;;;7.78;56.71;101532.22;5091745;28;20055;-73
2021/03/10 01:57:56;;;;;;;19.08;10.63;;;;;;;7.71;57.49;101533.56;5075475;28;20051;-68
2021/03/10 02:00:25;;;;;;;19.48;11.38;;;;;;;7.41;58.47;101544.53;5089426;28;20044;-74
2021/03/10 02:02:51;;;;;;;18.92;10.55;;;;;;;7.60;57.56;101535.47;5092550;28;20048;-69
2021/03/10 02:10:13;;;;;;;17.20;10.60;;;;;;;7.78;57.24;101515.75;5091558;28;20040;-69
2021/03/10 02:12:48;;;;;;;19.73;10.30;;;;;;;7.90;56.64;101510.78;5074990;28;20048;-70
2021/03/10 02:15:24;;;;;;;16.67;11.00;;;;;;;7.89;56.79;101511.09;5074087;28;20074;-72
2021/03/10 02:18:04;;;;;;;18.48;10.55;;;;;;;7.97;56.42;101499.53;5070020;28;20052;-66
2021/03/10 02:20:39;;;;;;;21.75;11.70;;;;;;;8.02;56.58;101494.03;5074251;28;20067;-73
2021/03/10 02:23:12;;;;;;;19.10;11.85;;;;;;;7.94;56.68;101497.34;5074482;28;20047;-70
2021/03/10 02:26:20;;;;;;;18.35;10.80;;;;;;;7.98;56.67;101482.78;5091843;28;20060;-70
2021/03/10 02:28:54;;;;;;;18.63;12.10;;;;;;;7.99;56.40;101483.63;5073713;28;20044;-71
2021/03/10 02:31:21;;;;;;;18.98;11.55;;;;;;;7.94;56.86;101478.16;5073716;28;20048;-72
2021/03/10 02:33:52;;;;;;;22.20;11.80;;;;;;;7.78;57.24;101474.63;5074092;28;20055;-73
2021/03/10 02:36:29;;;;;;;17.48;11.00;;;;;;;7.76;57.12;101471.31;5075577;28;20059;-72
2021/03/10 02:39:01;;;;;;;23.63;10.88;;;;;;;7.74;57.63;101475.47;5072046;28;20491;-71
2021/03/10 02:41:29;;;;;;;17.05;11.10;;;;;;;7.74;57.43;101468.03;5073381;28;20048;-69
2021/03/10 02:44:00;;;;;;;16.50;9.88;;;;;;;7.89;57.03;101470.78;5074906;28;20043;-70
2021/03/10 02:46:27;;;;;;;18.02;10.90;;;;;;;7.77;57.27;101477.63;5074120;28;20044;-70
2021/03/10 02:48:55;;;;;;;17.55;11.05;;;;;;;7.84;57.26;101484.50;5057491;28;20052;-70
2021/03/10 02:51:28;;;;;;;15.43;9.52;;;;;;;7.87;57.13;101480.34;5091860;28;20055;-73
2021/03/10 02:53:58;;;;;;;;;;;;;;;7.85;57.40;101477.06;5092437;28;20052;-70
2021/03/10 02:56:31;;;;;;;18.05;10.05;;;;;;;7.68;57.83;101482.03;5059270;28;19920;-71
2021/03/10 02:59:01;;;;;;;22.23;9.85;;;;;;;7.61;58.35;101474.09;5074612;28;20044;-68
2021/03/10 03:01:30;;;;;;;16.58;9.50;;;;;;;7.83;57.49;101476.50;5074469;28;20059;-72
2021/03/10 03:04:00;;;;;;;17.65;9.40;;;;;;;7.68;57.59;101469.16;5092552;28;20549;-72
2021/03/10 03:06:29;;;;;;;18.50;9.43;;;;;;;7.57;58.17;101469.41;5073204;28;20044;-72
2021/03/10 03:08:57;;;;;;;18.17;9.25;;;;;;;7.90;57.60;101466.91;5091313;28;20052;-70
2021/03/10 03:11:24;;;;;;;16.70;9.25;;;;;;;8.06;56.80;101470.44;5073314;28;20064;-71
2021/03/10 03:13:51;;;;;;;17.25;9.32;;;;;;;7.91;57.42;101462.25;5077684;28;20044;-72
2021/03/10 03:16:19;;;;;;;16.38;9.43;;;;;;;8.18;56.67;101459.16;5094215;28;20059;-71
2021/03/10 03:18:46;;;;;;;15.50;9.60;;;;;;;7.97;57.09;101461.13;5077208;28;20055;-71
2021/03/10 03:21:13;;;;;;;22.45;9.88;;;;;;;8.07;56.69;101463.88;5095055;28;20052;-72
2021/03/10 03:23:42;;;;;;;17.83;9.65;;;;;;;7.91;57.26;101462.25;5094828;28;20139;-71
2021/03/10 03:26:19;;;;;;;18.15;10.40;;;;;;;7.99;56.88;101457.03;5073271;28;20055;-67
2021/03/10 03:28:46;;;;;;;17.83;10.40;;;;;;;7.94;57.11;101450.72;5109363;28;20398;-67
2021/03/10 03:31:15;;;;;;;16.52;10.05;;;;;;;8.00;57.18;101446.88;5077669;28;20047;-72
2021/03/10 03:33:45;;;;;;;16.02;9.75;;;;;;;7.71;57.93;101443.09;5093577;28;20052;-71
2021/03/10 03:36:12;;;;;;;17.58;10.13;;;;;;;7.66;58.34;101437.59;5077241;28;20056;-65
2021/03/10 03:38:40;;;;;;;17.75;10.15;;;;;;;7.78;57.87;101443.63;5060508;28;20048;-68
2021/03/10 03:41:07;;;;;;;22.02;10.77;;;;;;;7.75;57.83;101444.19;5076446;28;20056;-71
2021/03/10 03:43:34;;;;;;;20.40;11.82;;;;;;;7.56;58.28;101443.94;5095145;28;20063;-70
2021/03/10 03:46:04;;;;;;;22.70;13.05;;;;;;;7.05;60.16;101455.16;5095187;28;20051;-71
2021/03/10 03:48:31;;;;;;;21.98;13.85;;;;;;;7.40;59.56;101450.53;5077067;28;20050;-72
2021/03/10 03:50:59;;;;;;;21.67;12.25;;;;;;;7.57;58.67;101450.22;5094981;28;20052;-68
2021/03/10 03:53:26;;;;;;;23.48;13.70;;;;;;;7.40;59.09;101452.44;5110022;28;20052;-69
2021/03/10 03:56:03;;;;;;;19.70;13.18;;;;;;;7.55;59.02;101458.72;5094178;28;20048;-71
2021/03/10 03:58:29;;;;;;;20.70;13.50;;;;;;;7.72;58.48;101450.22;5076832;28;20067;-70
2021/03/10 04:01:05;;;;;;;21.85;12.50;;;;;;;7.75;58.20;101450.50;5094019;28;20059;-69
2021/03/10 04:03:32;;;;;;;22.08;13.07;;;;;;;7.70;58.40;101447.75;5076094;28;20055;-68
2021/03/10 04:06:02;;;;;;;;;;;;;;;7.66;58.25;101446.66;5094391;28;20056;-66
2021/03/10 04:13:00;;;;;;;;;;;;;;;7.83;58.27;101438.13;5092003;28;20051;-66
2021/03/10 04:15:28;;;;;;;18.80;11.77;;;;;;;7.84;57.57;101434.28;5093499;28;19997;-69
2021/03/10 04:17:56;;;;;;;20.75;11.48;;;;;;;7.69;58.24;101437.03;5075793;28;20052;-66
2021/03/10 04:20:24;;;;;;;24.63;12.43;;;;;;;7.80;58.00;101428.53;5094504;28;20044;-73
2021/03/10 04:22:51;;;;;;;18.63;11.60;;;;;;;7.82;58.09;101433.75;5073693;28;20391;-72
2021/03/10 04:25:21;;;;;;;21.65;11.48;;;;;;;7.71;58.13;101427.47;5089099;28;20059;-72
2021/03/10 04:27:49;;;;;;;17.40;11.57;;;;;;;7.68;57.85;101424.44;5076192;28;20043;-73
2021/03/10 04:30:20;;;;;;;19.92;11.82;;;;;;;7.67;57.86;101425.56;5093631;28;20052;-71
2021/03/10 04:32:47;;;;;;;19.05;12.30;;;;;;;7.54;58.80;101423.38;5076835;28;20052;-72
2021/03/10 04:35:21;;;;;;;21.15;11.82;;;;;;;7.43;58.82;101439.00;5094064;28;20052;-73
2021/03/10 04:37:49;;;;;;;22.65;12.07;;;;;;;7.39;59.21;101442.59;5094042;28;20055;-67
2021/03/10 04:40:20;;;;;;;19.60;12.73;;;;;;;7.55;58.44;101445.03;5093830;28;20387;-72
2021/03/10 04:42:49;;;;;;;23.17;13.70;;;;;;;7.58;58.49;101441.72;5093592;28;20044;-68
2021/03/10 04:45:25;;;;;;;24.75;13.73;;;;;;;7.60;58.46;101438.72;5060012;28;20115;-68
2021/03/10 04:47:55;;;;;;;21.23;12.60;;;;;;;7.77;57.99;101440.06;5093733;28;20048;-71
2021/03/10 04:50:27;;;;;;;20.52;12.95;;;;;;;7.72;58.34;101447.50;5092018;28;20055;-71
2021/03/10 04:53:00;;;;;;;22.98;13.88;;;;;;;7.61;58.25;101441.19;5093700;28;20055;-71
2021/03/10 04:55:27;;;;;;;25.52;14.10;;;;;;;7.40;59.15;101452.44;5093395;28;20056;-71
2021/03/10 04:58:01;;;;;;;23.95;14.30;;;;;;;7.25;60.00;101450.53;5076379;28;20055;-72
2021/03/10 05:00:30;;;;;;;23.95;14.93;;;;;;;7.30;59.99;101447.78;5093629;28;20079;-67
2021/03/10 05:02:59;;;;;;;23.85;14.52;;;;;;;7.57;59.33;101436.53;5093758;28;20044;-72
2021/03/10 05:05:26;;;;;;;24.55;14.65;;;;;;;7.64;58.92;101442.53;5092592;28;20070;-72
2021/03/10 05:07:53;;;;;;;27.50;15.85;;;;;;;7.52;59.31;101436.53;5091612;28;20048;-73
2021/03/10 05:10:20;;;;;;;31.80;17.38;;;;;;;7.57;59.04;101442.84;5093482;28;20382;-67
2021/03/10 05:12:53;;;;;;;29.13;16.95;;;;;;;7.61;58.86;101440.38;5093684;28;20048;-68
2021/03/10 05:15:20;;;;;;;29.60;18.13;;;;;;;7.63;59.11;101441.75;5074980;28;20048;-70
2021/03/10 05:17:48;;;;;;;30.55;16.88;;;;;;;7.59;59.02;101443.38;5075261;28;20059;-64
2021/03/10 05:20:18;;;;;;;23.20;15.57;;;;;;;7.51;59.06;101449.44;5093423;28;20047;-66
2021/03/10 05:27:45;;;;;;;29.35;17.50;;;;;;;7.36;59.86;101451.34;5093554;28;20459;-72
2021/03/10 05:30:13;;;;;;;28.65;17.88;;;;;;;7.35;59.96;101458.75;5092723;28;20048;-71
2021/03/10 05:32:40;;;;;;;29.63;18.48;;;;;;;7.34;60.12;101462.56;5057729;28;20059;-67
2021/03/10 05:35:13;;;;;;;31.95;19.40;;;;;;;7.40;59.88;101463.41;5073907;28;20055;-68
2021/03/10 05:37:41;;;;;;;31.00;19.70;;;;;;;7.52;59.54;101461.19;5074910;28;20081;-70
2021/03/10 05:44:49;;;;;;;38.05;21.45;;;;;;;7.36;59.93;101462.28;5091286;28;20402;-66
2021/03/10 05:47:35;;;;;;;35.80;21.02;;;;;;;7.39;60.47;101468.03;5085027;28;20505;-68
2021/03/10 05:50:04;;;;;;;36.05;22.17;;;;;;;7.35;60.40;101463.41;5092904;28;20051;-69
2021/03/10 05:52:37;;;;;;;36.15;24.52;;;;;;;7.48;60.17;101460.94;5090879;28;20048;-70
2021/03/10 05:59:31;;;;;;;42.90;25.80;;;;;;;7.15;61.13;101449.72;5089648;28;20375;-67
2021/03/10 06:01:58;;;;;;;37.50;25.60;;;;;;;7.14;61.35;101445.31;5092696;28;20398;-67
2021/03/10 06:04:44;;;;;;;42.65;27.35;;;;;;;6.97;62.14;101456.53;5099796;28;20055;-69
2021/03/10 06:07:21;;;;;;;43.38;27.95;;;;;;;6.83;63.03;101453.47;5092161;28;20044;-66
2021/03/10 06:09:57;;;;;;;;;;;;;;;6.81;63.02;101452.94;5092923;28;20056;-67
2021/03/10 06:12:35;;;;;;;45.03;28.23;;;;;;;6.77;63.29;101454.56;5107717;28;19920;-69
2021/03/10 06:15:03;;;;;;;46.00;29.45;;;;;;;6.79;63.27;101449.66;5074544;28;20068;-72
2021/03/10 06:17:44;;;;;;;45.55;28.95;;;;;;;6.73;63.56;101447.97;5074518;28;20048;-71
2021/03/10 06:20:28;;;;;;;43.95;29.92;;;;;;;6.53;64.18;101445.19;5072790;28;20056;-68
2021/03/10 06:22:58;;;;;;;56.40;30.70;;;;;;;6.51;64.66;101452.03;5091288;28;20048;-74
2021/03/10 06:25:37;;;;;;;48.00;30.90;;;;;;;6.60;64.21;101453.97;5092521;28;20402;-70
2021/03/10 06:28:04;;;;;;;52.15;31.60;;;;;;;6.37;64.70;101454.44;5091441;28;20048;-68
2021/03/10 06:30:42;;;;;;;47.33;29.45;;;;;;;6.39;64.64;101455.00;5057531;28;20048;-70
2021/03/10 06:33:22;;;;;;;47.63;31.13;;;;;;;6.42;64.54;101453.63;5075024;28;20067;-69
2021/03/10 06:36:23;;;;;;;47.80;31.65;;;;;;;6.47;64.30;101453.63;5064625;28;20048;-72
2021/03/10 06:43:01;;;;;;;44.05;29.92;;;;;;;6.67;63.61;101457.28;5091540;28;20056;-71
2021/03/10 06:45:33;;;;;;;51.17;30.83;;;;;;;6.59;63.60;101462.47;5092230;28;20052;-67
2021/03/10 06:48:00;;;;;;;56.50;32.22;;;;;;;6.63;63.85;101477.25;5090582;28;20048;-69
2021/03/10 06:50:37;;;;;;;45.50;30.58;;;;;;;6.57;64.13;101468.19;5093241;28;20048;-72
2021/03/10 06:53:04;;;;;;;54.33;31.30;;;;;;;6.56;64.15;101473.94;5075863;28;20049;-69
2021/03/10 07:00:24;;;;;;;55.15;31.92;;;;;;;6.46;64.52;101472.00;5092549;28;20482;-75
2021/03/10 07:02:54;;;;;;;50.38;31.88;;;;;;;6.33;64.85;101472.47;5075411;28;20040;-70
2021/03/10 07:05:22;;;;;;;53.47;31.95;;;;;;;6.52;64.83;101470.09;5075058;28;20067;-70
2021/03/10 07:07:49;;;;;;;55.20;31.95;;;;;;;6.62;64.79;101467.41;5074474;28;20053;-73
2021/03/10 07:10:29;;;;;;;53.65;32.90;;;;;;;6.69;64.07;101484.38;5093759;28;20547;-73
2021/03/10 07:12:59;;;;;;;54.35;32.15;;;;;;;6.90;63.23;101483.34;5088186;28;20055;-70
2021/03/10 07:15:27;;;;;;;51.92;33.15;;;;;;;6.99;63.01;101489.91;5092689;28;20052;-67
2021/03/10 07:17:58;;;;;;;54.40;32.20;;;;;;;6.96;63.15;101490.47;5091463;28;20048;-69
2021/03/10 07:20:28;;;;;;;52.05;33.40;;;;;;;6.83;63.39;101502.75;5073547;28;20379;-69
2021/03/10 07:23:04;;;;;;;55.42;33.97;;;;;;;6.90;63.33;101501.69;5092301;28;20052;-70
2021/03/10 07:25:40;;;;;;;58.33;34.08;;;;;;;7.14;62.87;101494.63;5072653;28;20371;-72
2021/03/10 07:28:13;;;;;;;60.90;34.67;;;;;;;7.21;62.32;101506.13;5074582;28;20055;-68
2021/03/10 07:30:45;;;;;;;55.55;34.83;;;;;;;6.95;62.86;101498.97;5074041;28;20371;-68
2021/03/10 07:33:13;;;;;;;59.90;35.00;;;;;;;7.07;62.69;101500.38;5073077;28;20044;-69
2021/03/10 07:35:51;;;;;;;53.22;35.10;;;;;;;6.89;63.26;101500.06;5057675;28;20741;-65
2021/03/10 07:38:24;;;;;;;57.60;34.72;;;;;;;6.98;63.30;101496.50;5072318;28;20486;-64
2021/03/10 07:41:11;;;;;;;52.40;34.70;;;;;;;7.28;62.73;101498.47;5090901;28;20394;-64
2021/03/10 07:43:43;;;;;;;58.13;33.92;;;;;;;7.17;62.43;101508.59;5091251;28;20494;-64
2021/03/10 07:46:32;;;;;;;61.40;35.63;;;;;;;7.27;62.26;101505.84;5090782;28;20048;-66
2021/03/10 07:49:19;;;;;;;61.88;35.85;;;;;;;7.32;62.53;101505.06;5075353;28;20059;-71
2021/03/10 07:52:12;;;;;;;60.10;33.88;;;;;;;7.57;62.31;101492.19;5091282;28;20040;-71
2021/03/10 07:54:56;;;;;;;52.60;33.97;;;;;;;8.06;61.63;101492.38;5091073;28;20048;-72
2021/03/10 07:57:23;;;;;;;58.75;34.00;;;;;;;8.17;61.06;101479.47;5056927;28;20044;-74
2021/03/10 08:00:00;;;;;;;50.60;33.70;;;;;;;8.33;60.08;101476.44;5094425;28;20043;-73
2021/03/10 08:02:28;;;;;;;52.67;34.15;;;;;;;8.16;59.51;101475.09;5076793;28;20048;-69
2021/03/10 08:05:01;;;;;;;63.85;35.17;;;;;;;7.88;60.01;101484.72;5094749;28;20525;-71
2021/03/10 08:07:31;;;;;;;54.75;33.45;;;;;;;7.90;60.22;101486.13;5095256;28;20055;-71
2021/03/10 08:10:00;;;;;;;62.45;34.45;;;;;;;7.99;60.05;101487.19;5076761;28;20055;-72
2021/03/10 08:12:41;;;;;;;52.40;33.65;;;;;;;8.04;59.34;101472.63;5094153;28;20048;-70
2021/03/10 08:15:21;;;;;;;52.67;34.45;;;;;;;8.18;59.36;101479.19;5094766;28;20036;-71
2021/03/10 08:17:48;;;;;;;60.60;36.17;;;;;;;8.35;58.44;101471.47;5091588;28;20593;-68
2021/03/10 08:20:15;;;;;;;58.17;38.88;;;;;;;8.31;58.71;101467.66;5076226;28;20062;-63
2021/03/10 08:22:52;;;;;;;57.75;35.97;;;;;;;8.51;58.40;101469.47;5073896;28;20045;-72
2021/03/10 08:25:22;;;;;;;61.17;34.97;;;;;;;8.60;57.87;101454.06;5057205;28;20045;-68
2021/03/10 08:27:49;;;;;;;61.65;34.67;;;;;;;8.54;59.39;101455.22;5056977;28;20041;-66
2021/03/10 08:30:22;;;;;;;57.63;33.35;;;;;;;8.73;58.74;101447.97;5073278;28;20055;-69
2021/03/10 08:32:51;;;;;;;51.33;32.70;;;;;;;8.68;56.51;101451.53;5073116;28;20044;-65
2021/03/10 08:35:21;;;;;;;52.13;30.75;;;;;;;8.94;55.07;101446.75;5072069;28;20055;-67
2021/03/10 08:38:00;;;;;;;45.88;29.60;;;;;;;8.90;53.87;101443.75;5056193;28;20044;-72
2021/03/10 08:40:29;;;;;;;57.27;28.10;;;;;;;8.99;53.94;101442.03;5038473;28;20055;-64
2021/03/10 08:43:01;;;;;;;48.10;29.30;;;;;;;9.16;53.66;101436.13;5055155;28;20044;-69
2021/03/10 08:45:30;;;;;;;51.28;29.77;;;;;;;9.08;53.17;101434.81;5073383;28;20094;-69
2021/03/10 08:48:08;;;;;;;47.85;30.42;;;;;;;9.32;53.25;101429.41;5054050;28;20045;-70
2021/03/10 08:50:44;;;;;;;46.03;29.77;;;;;;;9.52;52.20;101425.66;5037643;28;20139;-67
2021/03/10 08:53:13;;;;;;;49.97;31.35;;;;;;;9.39;53.43;101418.06;5055949;28;20056;-66
2021/03/10 08:55:46;;;;;;;51.33;31.98;;;;;;;9.47;53.52;101425.69;5056187;28;20046;-74
2021/03/10 08:58:18;;;;;;;;;;;;;;;9.71;54.49;101432.88;5056212;28;20048;-69
2021/03/10 09:00:49;;;;;;;44.90;27.05;;;;;;;10.07;54.24;101425.91;5052701;28;19920;-70
2021/03/10 09:03:21;;;;;;;42.70;28.08;;;;;;;9.94;51.76;101421.09;5040294;28;20081;-66
2021/03/10 09:05:59;;;;;;;50.28;30.10;;;;;;;10.13;50.44;101419.25;5072906;28;20053;-70
2021/03/10 09:08:37;;;;;;;55.47;33.47;;;;;;;10.18;51.29;101421.13;5057181;28;20045;-71
2021/03/10 09:11:09;;;;;;;49.70;31.77;;;;;;;10.13;49.45;101421.19;5072916;28;20049;-68
2021/03/10 09:14:01;;;;;;;45.60;27.77;;;;;;;9.97;49.20;101428.75;5055222;28;20044;-70
2021/03/10 09:16:53;;;;;;;47.03;28.77;;;;;;;10.03;49.05;101424.03;5058563;28;20057;-65
2021/03/10 09:19:37;;;;;;;55.90;29.27;;;;;;;10.25;49.67;101429.03;5054947;28;20059;-67
2021/03/10 09:22:13;;;;;;;56.15;30.23;;;;;;;10.10;49.09;101430.84;5034827;28;20052;-67
2021/03/10 09:25:09;;;;;;;51.38;29.13;;;;;;;10.33;50.34;101425.63;5072948;28;20053;-66
2021/03/10 09:32:05;;;;;;;44.80;26.17;;;;;;;11.55;50.78;101416.03;5072829;28;20120;-66
2021/03/10 09:34:39;;;;;;;48.10;27.52;;;;;;;11.29;48.40;101420.34;5041495;28;20048;-65
2021/03/10 09:37:13;;;;;;;44.58;28.35;;;;;;;11.27;44.79;101419.84;5038418;28;20041;-64
2021/03/10 09:39:48;;;;;;;42.40;26.13;;;;;;;11.55;50.01;101407.78;5055106;28;20052;-64
2021/03/10 09:42:28;;;;;;;47.83;27.58;;;;;;;11.52;48.56;101397.34;5038628;28;20056;-65
2021/03/10 09:45:04;;;;;;;45.33;27.73;;;;;;;11.67;51.96;101396.25;5053878;28;20049;-62
2021/03/10 09:47:48;;;;;;;46.35;25.50;;;;;;;11.57;46.51;101382.63;5053586;28;20048;-66
2021/03/10 09:50:47;;;;;;;45.28;28.45;;;;;;;11.89;45.54;101385.38;5054112;28;20056;-65
2021/03/10 09:53:27;;;;;;;49.60;30.42;;;;;;;12.13;43.87;101386.78;5037419;28;20063;-65
2021/03/10 09:56:12;;;;;;;47.75;30.05;;;;;;;11.68;48.00;101376.63;5047288;28;20411;-65
2021/03/10 09:58:50;;;;;;;45.35;29.35;;;;;;;12.32;48.69;101375.63;5054177;28;20384;-64
2021/03/10 10:01:30;;;;;;;54.17;30.67;;;;;;;11.90;43.86;101370.44;5054575;28;20048;-63
2021/03/10 10:04:10;;;;;;;45.40;28.85;;;;;;;11.62;45.33;101364.03;5068994;28;20052;-63
2021/03/10 10:06:55;;;;;;;46.00;30.20;;;;;;;11.78;44.43;101356.31;5053638;28;20052;-65
2021/03/10 10:09:27;;;;;;;45.77;28.93;;;;;;;11.95;46.19;101360.13;5038901;28;20044;-66
2021/03/10 10:11:59;;;;;;;50.53;31.75;;;;;;;11.77;44.67;101349.97;5053398;28;20059;-64
2021/03/10 10:14:46;;;;;;;48.33;29.30;;;;;;;11.72;48.42;101338.22;5054403;28;20075;-68
2021/03/10 10:17:17;;;;;;;44.15;29.10;;;;;;;11.55;48.50;101338.78;5054216;28;20053;-66
2021/03/10 10:19:46;;;;;;;42.78;29.95;;;;;;;11.91;47.92;101333.41;5037130;28;20048;-69
2021/03/10 10:22:16;;;;;;;43.78;29.02;;;;;;;11.90;46.50;101326.25;5018945;28;20053;-74
2021/03/10 10:24:43;;;;;;;57.53;32.15;;;;;;;11.70;44.53;101323.94;5091183;28;20047;-73
2021/03/10 10:27:11;;;;;;;48.63;31.30;;;;;;;11.95;46.32;101323.41;5090371;28;20059;-72
2021/03/10 10:29:44;;;;;;;47.88;29.73;;;;;;;12.10;45.75;101321.13;5075285;28;20060;-68
2021/03/10 10:32:13;;;;;;;49.08;30.77;;;;;;;12.04;44.46;101316.84;5073247;28;20048;-68
2021/03/10 10:34:42;;;;;;;47.53;29.70;;;;;;;12.41;43.21;101310.25;5074781;28;20059;-68
2021/03/10 10:37:13;;;;;;;50.92;32.20;;;;;;;12.55;44.95;101307.44;5074055;28;20040;-72
2021/03/10 10:39:47;;;;;;;46.95;29.38;;;;;;;12.48;47.18;101304.28;5074856;28;20055;-70
2021/03/10 10:42:26;;;;;;;48.35;30.77;;;;;;;12.26;42.60;101296.75;5091924;28;20078;-74
2021/03/10 10:45:12;;;;;;;52.85;31.50;;;;;;;12.40;44.07;101303.06;5059044;28;20071;-75
2021/03/10 10:47:57;;;;;;;50.08;31.23;;;;;;;12.63;44.61;101298.38;5056471;28;20052;-76
2021/03/10 10:50:37;;;;;;;53.35;31.90;;;;;;;12.81;41.45;101286.34;5073667;28;20048;-76
2021/03/10 10:53:08;;;;;;;50.58;31.02;;;;;;;12.61;44.93;101300.63;5058270;28;20147;-80
2021/03/10 10:55:35;;;;;;;43.78;27.42;;;;;;;13.05;44.03;101301.50;5107715;28;20068;-76
2021/03/10 10:58:05;;;;;;;46.65;28.92;;;;;;;13.36;43.46;101305.09;5074359;28;20390;-75
2021/03/10 11:00:40;;;;;;;48.58;30.27;;;;;;;12.80;41.78;101299.34;5074600;28;20060;-71
2021/03/10 11:03:12;;;;;;;39.80;27.67;;;;;;;12.93;44.53;101298.47;5071654;28;20052;-76
2021/03/10 11:05:47;;;;;;;50.72;31.27;;;;;;;12.41;42.78;101294.47;5091867;28;20382;-69
2021/03/10 11:08:16;;;;;;;48.17;30.27;;;;;;;12.86;43.85;101280.69;5091821;28;20051;-70
2021/03/10 11:10:44;;;;;;;47.45;30.00;;;;;;;13.06;42.53;101297.59;5094087;28;20051;-78
2021/03/10 11:13:35;;;;;;;44.13;30.10;;;;;;;12.62;41.33;101275.47;5060522;28;20067;-76
2021/03/10 11:16:51;;;;;;;48.47;29.30;;;;;;;12.71;40.72;101272.78;5091755;28;20059;-69
2021/03/10 11:19:27;;;;;;;50.13;30.17;;;;;;;12.98;41.81;101276.22;5058979;28;20059;-76
2021/03/10 11:21:58;;;;;;;52.05;30.98;;;;;;;12.60;39.52;101269.44;5073272;28;20067;-70
2021/03/10 11:24:36;;;;;;;48.45;31.00;;;;;;;12.58;42.61;101271.69;5078610;28;20482;-74
2021/03/10 11:27:11;;;;;;;44.33;30.45;;;;;;;12.41;39.76;101253.03;5074666;28;20048;-73
2021/03/10 11:34:04;;;;;;;52.70;30.10;;;;;;;12.34;40.80;101269.22;5075393;28;20517;-70
2021/03/10 11:36:35;;;;;;;54.13;34.00;;;;;;;12.29;39.89;101268.53;5077127;28;20055;-72
2021/03/10 11:39:05;;;;;;;57.28;32.25;;;;;;;12.23;41.39;101267.00;5078053;28;20474;-70
2021/03/10 11:41:41;;;;;;;53.72;34.08;;;;;;;12.18;41.40;101265.19;5093553;28;20443;-71
2021/03/10 11:44:17;;;;;;;45.92;32.28;;;;;;;12.24;42.32;101266.69;5095287;28;20055;-68
2021/03/10 11:47:26;;;;;;;56.13;37.53;;;;;;;12.78;41.43;101253.81;5011563;28;20053;-68
2021/03/10 11:49:53;;;;;;;50.15;34.20;;;;;;;12.59;40.21;101251.22;4997178;28;20054;-69
2021/03/10 11:52:20;;;;;;;54.95;34.78;;;;;;;12.38;39.82;101259.19;4996309;28;20130;-74
2021/03/10 11:54:50;;;;;;;48.90;33.83;;;;;;;12.45;40.91;101244.91;5013994;28;20058;-68
2021/03/10 11:57:17;;;;;;;50.10;34.53;;;;;;;12.67;39.31;101246.88;5011967;28;20050;-67
2021/03/10 12:04:09;;;;;;;58.17;34.90;;;;;;;12.08;39.90;101229.50;5010672;28;20050;-67
2021/03/10 12:06:45;;;;;;;50.80;33.42;;;;;;;12.40;40.33;101222.94;5007654;28;20533;-68
2021/03/10 12:09:13;;;;;;;48.88;34.00;;;;;;;12.37;39.88;101223.59;4978230;28;20057;-68
2021/03/10 12:11:45;;;;;;;52.72;34.10;;;;;;;12.31;40.46;101213.78;5063671;28;20404;-72
2021/03/10 12:14:23;;;;;;;50.75;34.65;;;;;;;12.48;40.08;101207.56;5091523;28;20132;-70
2021/03/10 12:17:05;;;;;;;51.83;34.85;;;;;;;12.29;42.01;101199.47;5071712;28;20063;-67
2021/03/10 12:19:32;;;;;;;54.88;35.45;;;;;;;12.36;40.45;101184.09;5090121;28;20072;-75
2021/03/10 12:21:59;;;;;;;49.30;34.97;;;;;;;12.34;39.92;101183.56;5094982;28;20450;-70
2021/03/10 12:24:27;;;;;;;52.83;35.17;;;;;;;12.31;39.78;101178.69;5075633;28;20052;-68
2021/03/10 12:27:06;;;;;;;49.97;33.60;;;;;;;12.43;39.18;101175.34;5090344;28;20052;-71
2021/03/10 12:29:34;;;;;;;54.40;34.50;;;;;;;12.57;40.39;101167.00;5093006;28;20044;-71
2021/03/10 12:32:08;;;;;;;54.70;33.58;;;;;;;12.56;39.03;101165.34;5090974;28;20063;-70
2021/03/10 12:34:37;;;;;;;55.45;33.75;;;;;;;12.43;39.36;101148.53;5059623;28;20192;-70
2021/03/10 12:37:04;;;;;;;49.85;33.72;;;;;;;12.62;38.92;101148.34;5093732;28;20155;-67
2021/03/10 12:39:31;;;;;;;53.63;34.70;;;;;;;12.46;38.03;101150.66;5075924;28;20044;-74
2021/03/10 12:42:09;;;;;;;57.58;35.08;;;;;;;12.64;38.39;101148.03;5093544;28;20059;-68
2021/03/10 12:44:44;;;;;;;52.97;35.00;;;;;;;12.86;38.04;101146.03;5093005;28;20383;-70
2021/03/10 12:47:12;;;;;;;49.97;33.58;;;;;;;12.91;38.61;101134.00;5048943;28;20048;-67